Time;durP1;ratioP1;P1;durP2;ratioP2;P2;SDS_P1;SDS_P2;PMS_P1;PMS_P2;Temp;Humidity;BMP_temperature;BMP_pressure;BME280_temperature;BME280_humidity;BME280_pressure;Samples;Min_cycle;Max_cycle;Signal;HPM_P1;HPM_P2
2022/07/30 00:00:32;;;;;;;0.00;0.00;;;;;;;17.70;100.00;98005.75;5097301;28;20420;-65
2022/07/30 00:03:00;;;;;;;0.00;0.00;;;;;;;17.65;100.00;98005.31;5097612;28;20335;-65
2022/07/30 00:05:27;;;;;;;0.00;0.00;;;;;;;17.63;100.00;98000.16;5097421;28;20036;-65
2022/07/30 00:07:55;;;;;;;0.00;0.00;;;;;;;17.66;100.00;97997.22;5097771;28;20044;-64
2022/07/30 00:10:22;;;;;;;0.00;0.00;;;;;;;17.72;100.00;97993.13;5097305;28;20040;-65
2022/07/30 00:12:51;;;;;;;0.00;0.00;;;;;;;17.80;100.00;97987.97;5097251;28;20056;-66
2022/07/30 00:15:19;;;;;;;0.00;0.00;;;;;;;17.86;100.00;97986.53;5097431;28;20044;-66
2022/07/30 00:17:46;;;;;;;0.00;0.00;;;;;;;17.81;100.00;97984.34;5097034;28;20135;-66
2022/07/30 00:20:14;;;;;;;0.00;0.00;;;;;;;17.81;100.00;97975.50;5097511;28;20044;-66
2022/07/30 00:22:41;;;;;;;0.00;0.00;;;;;;;17.81;100.00;97970.19;5097276;28;20131;-65
2022/07/30 00:25:09;;;;;;;0.00;0.00;;;;;;;17.72;100.00;97971.84;5097541;28;20051;-66
2022/07/30 00:27:37;;;;;;;0.00;0.00;;;;;;;17.60;100.00;97976.50;5097225;28;20036;-65
2022/07/30 00:30:07;;;;;;;0.00;0.00;;;;;;;17.55;100.00;97981.41;5097089;28;20370;-66
2022/07/30 00:32:35;;;;;;;0.00;0.00;;;;;;;17.51;100.00;97982.69;5096116;28;20048;-66
2022/07/30 00:35:02;;;;;;;0.00;0.00;;;;;;;17.43;100.00;97973.72;5097045;28;20086;-66
2022/07/30 00:37:30;;;;;;;0.00;0.00;;;;;;;17.48;100.00;97984.78;5096867;28;20048;-66
2022/07/30 00:39:58;;;;;;;0.00;0.00;;;;;;;17.47;100.00;97978.63;5097068;28;20388;-66
2022/07/30 00:42:37;;;;;;;0.00;0.00;;;;;;;17.54;100.00;97968.25;5096305;28;20040;-66
2022/07/30 00:45:08;;;;;;;0.00;0.00;;;;;;;17.61;100.00;97956.91;5096832;28;20079;-66
2022/07/30 00:47:36;;;;;;;0.00;0.00;;;;;;;17.57;100.00;97947.53;5095873;28;20485;-66
2022/07/30 00:50:06;;;;;;;0.00;0.00;;;;;;;17.55;100.00;97949.47;5096695;28;20048;-66
2022/07/30 00:52:34;;;;;;;0.00;0.00;;;;;;;17.59;100.00;97934.09;5096901;28;20123;-66
2022/07/30 00:55:02;;;;;;;0.00;0.00;;;;;;;17.59;100.00;97934.09;5095852;28;20074;-66
2022/07/30 00:57:29;;;;;;;0.00;0.00;;;;;;;17.58;100.00;97929.72;5096945;28;20044;-65
2022/07/30 00:59:57;;;;;;;0.00;0.00;;;;;;;17.55;100.00;97933.53;5095831;28;20143;-65
2022/07/30 01:02:26;;;;;;;0.00;0.00;;;;;;;17.54;100.00;97931.00;5096758;28;20130;-66
2022/07/30 01:04:53;;;;;;;0.00;0.00;;;;;;;17.50;100.00;97926.94;5096594;28;20462;-65
2022/07/30 01:07:21;;;;;;;0.00;0.00;;;;;;;17.44;100.00;97922.22;5095811;28;20085;-65
2022/07/30 01:09:48;;;;;;;0.00;0.00;;;;;;;17.43;100.00;97924.03;5095509;28;20044;-65
2022/07/30 01:12:20;;;;;;;0.00;0.00;;;;;;;17.41;100.00;97919.84;5096576;28;20048;-65
2022/07/30 01:14:49;;;;;;;0.00;0.00;;;;;;;17.30;100.00;97915.50;5096566;28;20054;-65
2022/07/30 01:17:16;;;;;;;0.00;0.00;;;;;;;17.22;100.00;97923.38;5095183;28;20325;-66
2022/07/30 01:19:51;;;;;;;0.00;0.00;;;;;;;17.17;100.00;97924.78;5096411;28;20072;-65
2022/07/30 01:22:35;;;;;;;0.00;0.00;;;;;;;17.07;100.00;97918.66;5096098;28;20394;-65
2022/07/30 01:25:08;;;;;;;0.00;0.00;;;;;;;16.95;100.00;97915.28;5095635;28;20071;-65
2022/07/30 01:27:43;;;;;;;0.00;0.00;;;;;;;16.93;100.00;97913.72;5096735;28;20044;-65
2022/07/30 01:30:13;;;;;;;0.00;0.00;;;;;;;16.87;100.00;97911.63;5095582;28;20047;-65
2022/07/30 01:32:43;;;;;;;0.00;0.00;;;;;;;16.86;100.00;97905.44;5096444;28;20056;-65
2022/07/30 01:35:13;;;;;;;0.00;0.00;;;;;;;16.85;100.00;97895.81;5095439;28;20067;-65
2022/07/30 01:37:42;;;;;;;0.00;0.00;;;;;;;16.87;100.00;97895.66;5095363;28;20463;-65
2022/07/30 01:40:13;;;;;;;0.00;0.00;;;;;;;16.83;100.00;97886.31;5095292;28;20052;-65
2022/07/30 01:42:44;;;;;;;0.00;0.00;;;;;;;16.81;100.00;97889.09;5095293;28;20059;-65
2022/07/30 01:45:13;;;;;;;0.00;0.00;;;;;;;16.79;100.00;97887.56;5095479;28;20375;-65
2022/07/30 01:47:44;;;;;;;0.00;0.00;;;;;;;16.75;100.00;97888.81;5095562;28;20450;-65
2022/07/30 01:50:14;;;;;;;0.00;0.00;;;;;;;16.74;100.00;97877.34;5095549;28;20075;-65
2022/07/30 01:52:45;;;;;;;0.00;0.00;;;;;;;16.79;100.00;97882.25;5096481;28;20074;-65
2022/07/30 01:55:18;;;;;;;0.00;0.00;;;;;;;16.82;100.00;97880.13;5097378;28;20311;-66
2022/07/30 01:57:50;;;;;;;0.00;0.00;;;;;;;16.77;100.00;97881.53;5099773;28;20040;-65
2022/07/30 02:00:17;;;;;;;0.00;0.00;;;;;;;16.68;100.00;97871.75;5099138;28;20044;-65
2022/07/30 02:02:46;;;;;;;0.00;0.00;;;;;;;16.57;100.00;97875.41;5099708;28;20032;-65
2022/07/30 02:05:14;;;;;;;0.00;0.00;;;;;;;16.55;100.00;97868.53;5098923;28;20040;-65
2022/07/30 02:07:50;;;;;;;0.00;0.00;;;;;;;16.57;100.00;97863.94;5098790;28;20416;-65
2022/07/30 02:10:26;;;;;;;0.00;0.00;;;;;;;16.54;100.00;97864.22;5098540;28;20072;-65
2022/07/30 02:12:55;;;;;;;0.00;0.00;;;;;;;16.48;100.00;97865.59;5098547;28;20063;-65
2022/07/30 02:15:28;;;;;;;0.00;0.00;;;;;;;16.42;100.00;97860.88;5098641;28;20044;-65
2022/07/30 02:17:59;;;;;;;;;;;;;;;16.45;100.00;97862.41;5099615;28;20113;-65
2022/07/30 02:20:28;;;;;;;0.00;0.00;;;;;;;16.27;100.00;97854.25;5098339;28;19942;-65
2022/07/30 02:23:01;;;;;;;0.00;0.00;;;;;;;16.12;100.00;97860.13;5099619;28;20131;-65
2022/07/30 02:25:33;;;;;;;0.00;0.00;;;;;;;16.14;100.00;97866.13;5098453;28;20044;-65
2022/07/30 02:28:08;;;;;;;0.00;0.00;;;;;;;16.11;100.00;97866.38;5098436;28;20078;-65
2022/07/30 02:30:40;;;;;;;0.00;0.00;;;;;;;16.15;100.00;97867.81;5098040;28;20386;-64
2022/07/30 02:33:11;;;;;;;0.00;0.00;;;;;;;16.18;100.00;97857.75;5097715;28;20040;-65
2022/07/30 02:35:41;;;;;;;0.00;0.00;;;;;;;16.25;100.00;97853.56;5098970;28;20443;-65
2022/07/30 02:38:11;;;;;;;0.00;0.00;;;;;;;16.31;100.00;97846.88;5097757;28;20043;-64
2022/07/30 02:40:42;;;;;;;0.00;0.00;;;;;;;16.29;100.00;97848.81;5097929;28;20048;-65
2022/07/30 02:43:14;;;;;;;0.00;0.00;;;;;;;16.20;100.00;97841.69;5098683;28;20068;-65
2022/07/30 02:45:42;;;;;;;0.00;0.00;;;;;;;16.15;100.00;97835.97;5098406;28;20354;-65
2022/07/30 02:48:11;;;;;;;0.00;0.00;;;;;;;16.23;100.00;97846.72;5098161;28;20302;-65
2022/07/30 02:50:40;;;;;;;0.00;0.00;;;;;;;16.25;100.00;97853.56;5097248;28;20307;-64
2022/07/30 02:53:11;;;;;;;0.00;0.00;;;;;;;16.32;100.00;97854.69;5097874;28;20039;-65
2022/07/30 02:55:42;;;;;;;0.00;0.00;;;;;;;16.39;100.00;97860.28;5097641;28;20101;-65
2022/07/30 02:58:15;;;;;;;0.00;0.00;;;;;;;16.39;100.00;97860.28;5097609;28;20048;-64
2022/07/30 03:00:44;;;;;;;0.00;0.00;;;;;;;16.29;100.00;97854.97;5097440;28;20131;-64
2022/07/30 03:03:14;;;;;;;0.00;0.00;;;;;;;16.35;100.00;97861.53;5097346;28;20499;-63
2022/07/30 03:05:42;;;;;;;0.00;0.00;;;;;;;16.37;100.00;97857.78;5097118;28;20132;-65
2022/07/30 03:08:10;;;;;;;0.00;0.00;;;;;;;16.40;100.00;97848.69;5097351;28;20047;-65
2022/07/30 03:10:40;;;;;;;0.00;0.00;;;;;;;16.46;100.00;97854.28;5097428;28;20052;-65
2022/07/30 03:13:09;;;;;;;0.00;0.00;;;;;;;16.53;100.00;97860.72;5097100;28;20048;-64
2022/07/30 03:15:45;;;;;;;0.00;0.00;;;;;;;16.56;100.00;97856.94;5098204;28;20314;-65
2022/07/30 03:18:18;;;;;;;0.00;0.00;;;;;;;16.62;100.00;97856.38;5097153;28;20070;-64
2022/07/30 03:20:49;;;;;;;0.00;0.00;;;;;;;16.65;100.00;97856.94;5097444;28;20451;-64
2022/07/30 03:23:19;;;;;;;0.00;0.00;;;;;;;16.70;100.00;97852.03;5097271;28;20047;-65
2022/07/30 03:25:51;;;;;;;0.00;0.00;;;;;;;16.73;100.00;97856.22;5098028;28;20343;-65
2022/07/30 03:28:21;;;;;;;0.00;0.00;;;;;;;16.75;100.00;97852.44;5097087;28;20043;-65
2022/07/30 03:30:53;;;;;;;0.00;0.00;;;;;;;16.70;100.00;97853.88;5096965;28;20090;-65
2022/07/30 03:33:22;;;;;;;0.00;0.00;;;;;;;16.58;100.00;97849.66;5097213;28;20419;-65
2022/07/30 03:35:51;;;;;;;0.00;0.00;;;;;;;16.40;100.00;97857.50;5098092;28;20052;-64
2022/07/30 03:38:19;;;;;;;0.00;0.00;;;;;;;16.36;100.00;97860.56;5096977;28;20064;-65
2022/07/30 03:40:48;;;;;;;0.00;0.00;;;;;;;16.45;100.00;97849.94;5096886;28;20044;-65
2022/07/30 03:43:16;;;;;;;0.00;0.00;;;;;;;16.56;100.00;97849.81;5097987;28;20040;-65
2022/07/30 03:45:45;;;;;;;0.00;0.00;;;;;;;16.60;100.00;97853.03;5097604;28;20454;-65
2022/07/30 03:48:16;;;;;;;0.00;0.00;;;;;;;16.56;100.00;97860.44;5096293;28;20040;-65
2022/07/30 03:50:47;;;;;;;0.00;0.00;;;;;;;16.59;100.00;97865.47;5096515;28;20058;-65
2022/07/30 03:53:15;;;;;;;0.00;0.00;;;;;;;16.62;100.00;97862.53;5096632;28;20044;-65
2022/07/30 03:56:02;;;;;;;0.00;0.00;;;;;;;16.61;100.00;97860.88;5097478;28;20158;-65
2022/07/30 03:58:56;;;;;;;0.00;0.00;;;;;;;16.56;100.00;97864.91;5096505;28;20044;-65
2022/07/30 04:01:25;;;;;;;0.00;0.00;;;;;;;16.52;100.00;97868.84;5096590;28;20508;-65
2022/07/30 04:04:04;;;;;;;0.00;0.00;;;;;;;16.46;100.00;97861.41;5096633;28;20040;-65
2022/07/30 04:06:32;;;;;;;0.00;0.00;;;;;;;16.49;100.00;97864.63;5096305;28;20139;-65
2022/07/30 04:08:59;;;;;;;0.00;0.00;;;;;;;16.50;100.00;97852.19;5096251;28;20036;-65
2022/07/30 04:11:27;;;;;;;0.00;0.00;;;;;;;16.50;100.00;97849.53;5096355;28;20437;-65
2022/07/30 04:14:04;;;;;;;0.00;0.00;;;;;;;16.49;100.00;97850.53;5096362;28;20097;-66
2022/07/30 04:16:39;;;;;;;0.00;0.00;;;;;;;16.48;100.00;97854.97;5096631;28;20047;-65
2022/07/30 04:19:15;;;;;;;0.00;0.00;;;;;;;16.47;100.00;97853.31;5095254;28;20397;-65
2022/07/30 04:21:47;;;;;;;0.00;0.00;;;;;;;16.46;100.00;97856.94;5096171;28;20085;-65
2022/07/30 04:24:17;;;;;;;0.00;0.00;;;;;;;16.48;100.00;97857.63;5096417;28;20423;-66
2022/07/30 04:26:46;;;;;;;0.00;0.00;;;;;;;16.49;100.00;97854.00;5096090;28;20044;-65
2022/07/30 04:29:16;;;;;;;0.00;0.00;;;;;;;16.54;100.00;97848.28;5096488;28;20377;-65
2022/07/30 04:31:43;;;;;;;0.00;0.00;;;;;;;16.57;100.00;97845.34;5096610;28;20040;-65
2022/07/30 04:34:31;;;;;;;0.00;0.00;;;;;;;16.56;100.00;97856.94;5096757;28;20039;-66
2022/07/30 04:37:00;;;;;;;0.00;0.00;;;;;;;16.62;100.00;97851.06;5096797;28;20136;-65
2022/07/30 04:39:27;;;;;;;0.00;0.00;;;;;;;16.69;100.00;97852.19;5095673;28;20127;-65
2022/07/30 04:41:55;;;;;;;0.00;0.00;;;;;;;16.81;100.00;97856.34;5095964;28;20048;-66
2022/07/30 04:44:36;;;;;;;0.00;0.00;;;;;;;16.88;100.00;97860.97;5096889;28;20043;-65
2022/07/30 04:47:23;;;;;;;0.00;0.00;;;;;;;16.94;100.00;97859.59;5096968;28;20055;-66
2022/07/30 04:50:13;;;;;;;0.00;0.00;;;;;;;16.97;100.00;97862.00;5096266;28;20048;-66
2022/07/30 04:52:43;;;;;;;0.00;0.00;;;;;;;16.99;100.00;97866.19;5096162;28;20428;-65
2022/07/30 04:55:13;;;;;;;0.00;0.00;;;;;;;17.08;100.00;97869.81;5095835;28;20040;-65
2022/07/30 04:57:43;;;;;;;0.00;0.00;;;;;;;17.24;100.00;97867.38;5095847;28;20051;-66
2022/07/30 05:00:12;;;;;;;0.00;0.00;;;;;;;17.37;100.00;97870.59;5095509;28;20043;-65
2022/07/30 05:02:42;;;;;;;0.00;0.00;;;;;;;17.48;100.00;97863.25;5095724;28;20044;-65
2022/07/30 05:05:12;;;;;;;0.00;0.00;;;;;;;17.59;100.00;97872.91;5096810;28;20071;-65
2022/07/30 05:07:40;;;;;;;0.00;0.00;;;;;;;17.65;100.00;97865.16;5095821;28;20432;-64
2022/07/30 05:10:11;;;;;;;0.00;0.00;;;;;;;17.78;100.00;97866.63;5095476;28;20044;-64
2022/07/30 05:12:40;;;;;;;0.00;0.00;;;;;;;17.92;100.00;97861.72;5095490;28;20044;-64
2022/07/30 05:15:10;;;;;;;0.00;0.00;;;;;;;18.10;100.00;97867.09;5095464;28;20046;-63
2022/07/30 05:17:38;;;;;;;0.00;0.00;;;;;;;18.23;100.00;97864.88;5095460;28;20075;-64
2022/07/30 05:20:09;;;;;;;0.00;0.00;;;;;;;18.35;100.00;97856.53;5094538;28;20340;-63
2022/07/30 05:23:04;;;;;;;0.00;0.00;;;;;;;18.51;100.00;97855.88;5034093;28;20053;-63
2022/07/30 05:25:32;;;;;;;0.00;0.00;;;;;;;18.67;100.00;97845.38;5017894;28;20045;-64
2022/07/30 05:28:13;;;;;;;0.00;0.00;;;;;;;18.92;100.00;97856.09;5034311;28;20053;-63
2022/07/30 05:30:41;;;;;;;0.00;0.00;;;;;;;19.13;100.00;97845.09;5011943;28;20049;-63
2022/07/30 05:33:12;;;;;;;0.00;0.00;;;;;;;19.30;100.00;97850.38;5001784;28;20066;-63
2022/07/30 05:35:40;;;;;;;0.00;0.00;;;;;;;19.35;99.87;97833.91;5002041;28;20129;-64
2022/07/30 05:38:08;;;;;;;0.00;0.00;;;;;;;19.36;99.78;97839.09;5001808;28;20052;-63
2022/07/30 05:40:48;;;;;;;0.00;0.00;;;;;;;19.32;100.00;97837.75;5002194;28;20080;-64
2022/07/30 05:43:39;;;;;;;0.00;0.00;;;;;;;19.27;98.83;97840.03;5007878;28;20062;-63
2022/07/30 05:46:07;;;;;;;0.00;0.00;;;;;;;19.16;98.15;97842.13;5000942;28;20050;-63
2022/07/30 05:48:35;;;;;;;0.00;0.00;;;;;;;19.15;97.66;97832.44;5000128;28;20050;-62
2022/07/30 05:51:03;;;;;;;0.00;0.00;;;;;;;19.15;98.08;97837.75;5017626;28;20100;-63
2022/07/30 05:53:33;;;;;;;0.00;0.00;;;;;;;19.33;98.25;97834.06;5001818;28;20057;-64
2022/07/30 05:56:10;;;;;;;0.00;0.00;;;;;;;19.41;97.45;97833.25;5017864;28;20342;-63
2022/07/30 05:58:58;;;;;;;0.00;0.00;;;;;;;19.28;97.76;97835.53;5023000;28;20335;-62
2022/07/30 06:01:48;;;;;;;0.00;0.00;;;;;;;19.22;98.29;97838.81;5079444;28;20105;-63
2022/07/30 06:04:22;;;;;;;0.00;0.00;;;;;;;19.34;97.71;97849.06;5078558;28;20059;-63
2022/07/30 06:06:54;;;;;;;;;;;;;;;19.77;97.19;97846.34;5078742;28;20123;-62
2022/07/30 06:09:25;;;;;;;0.00;0.00;;;;;;;20.07;95.66;97859.16;5078201;28;20274;-63
2022/07/30 06:11:53;;;;;;;0.00;0.00;;;;;;;20.23;94.70;97861.09;5078289;28;20048;-63
2022/07/30 06:14:20;;;;;;;0.00;0.00;;;;;;;20.34;94.63;97869.59;5077975;28;20071;-62
2022/07/30 06:16:48;;;;;;;0.00;0.00;;;;;;;20.21;94.26;97866.59;5079502;28;20066;-63
2022/07/30 06:19:17;;;;;;;0.00;0.00;;;;;;;20.02;94.56;97861.47;5077817;28;20048;-63
2022/07/30 06:21:46;;;;;;;0.00;0.00;;;;;;;20.07;94.12;97853.81;5077958;28;20467;-63
2022/07/30 06:24:15;;;;;;;0.00;0.00;;;;;;;20.17;93.44;97843.88;5077927;28;20420;-62
2022/07/30 06:26:48;;;;;;;0.00;0.00;;;;;;;20.24;93.30;97849.38;5077974;28;20056;-63
2022/07/30 06:29:15;;;;;;;0.00;0.00;;;;;;;20.17;93.56;97846.53;5077757;28;20044;-63
2022/07/30 06:31:43;;;;;;;0.00;0.00;;;;;;;20.17;93.05;97846.53;5077905;28;20347;-62
2022/07/30 06:34:12;;;;;;;0.00;0.00;;;;;;;20.25;93.25;97838.53;5060919;28;20060;-62
2022/07/30 06:36:43;;;;;;;0.00;0.00;;;;;;;20.49;92.35;97843.09;5077755;28;20074;-62
2022/07/30 06:39:19;;;;;;;0.00;0.00;;;;;;;20.69;91.28;97839.94;5077751;28;20169;-62
2022/07/30 06:42:00;;;;;;;0.00;0.00;;;;;;;20.85;90.14;97844.47;5077929;28;20048;-63
2022/07/30 06:44:30;;;;;;;0.00;0.00;;;;;;;20.96;90.38;97836.16;5077676;28;20048;-63
2022/07/30 06:47:25;;;;;;;0.00;0.00;;;;;;;20.95;89.88;97833.66;5077651;28;20131;-62
2022/07/30 06:49:53;;;;;;;0.00;0.00;;;;;;;20.94;89.96;97827.44;5077652;28;20055;-62
2022/07/30 06:52:21;;;;;;;0.00;0.00;;;;;;;21.00;89.74;97820.59;5078502;28;20086;-64
2022/07/30 06:54:52;;;;;;;0.00;0.00;;;;;;;20.91;89.56;97821.59;5077338;28;20056;-63
2022/07/30 06:57:29;;;;;;;0.00;0.00;;;;;;;20.98;89.75;97814.56;5078146;28;20049;-63
2022/07/30 06:59:57;;;;;;;0.00;0.00;;;;;;;21.22;90.12;97806.53;5077261;28;20040;-63
2022/07/30 07:02:30;;;;;;;0.00;0.00;;;;;;;21.36;88.32;97806.63;5077282;28;20195;-63
2022/07/30 07:05:10;;;;;;;0.00;0.00;;;;;;;21.42;88.29;97799.75;5077020;28;20321;-63
2022/07/30 07:07:40;;;;;;;0.00;0.00;;;;;;;21.54;88.35;97798.41;5077452;28;20052;-62
2022/07/30 07:10:10;;;;;;;0.00;0.00;;;;;;;21.72;88.30;97791.84;5077512;28;20051;-62
2022/07/30 07:12:48;;;;;;;0.00;0.00;;;;;;;21.81;87.97;97789.97;5078043;28;20348;-63
2022/07/30 07:15:20;;;;;;;0.00;0.00;;;;;;;21.79;87.16;97787.47;5077151;28;20068;-62
2022/07/30 07:17:47;;;;;;;0.00;0.00;;;;;;;21.77;87.20;97792.16;5076777;28;20068;-62
2022/07/30 07:20:31;;;;;;;0.00;0.00;;;;;;;21.85;86.95;97797.50;5076240;28;20420;-62
2022/07/30 07:23:04;;;;;;;0.00;0.00;;;;;;;21.97;86.88;97798.75;5076455;28;20041;-63
2022/07/30 07:25:33;;;;;;;0.00;0.00;;;;;;;22.18;86.65;97799.00;5076619;28;20048;-62
2022/07/30 07:28:03;;;;;;;0.00;0.00;;;;;;;22.33;85.58;97785.69;5076774;28;20119;-62
2022/07/30 07:30:31;;;;;;;0.00;0.00;;;;;;;22.40;84.34;97786.66;5076599;28;20040;-63
2022/07/30 07:32:58;;;;;;;0.00;0.00;;;;;;;22.50;83.86;97788.06;5076695;28;20045;-62
2022/07/30 07:35:26;;;;;;;0.00;0.00;;;;;;;22.48;83.60;97790.09;5077549;28;20055;-63
2022/07/30 07:37:53;;;;;;;0.00;0.00;;;;;;;22.68;83.39;97783.25;5076624;28;20052;-62
2022/07/30 07:40:23;;;;;;;0.00;0.00;;;;;;;22.75;82.57;97780.66;5076346;28;20452;-63
2022/07/30 07:42:51;;;;;;;0.00;0.00;;;;;;;22.77;82.96;97787.53;5076361;28;20048;-63
2022/07/30 07:45:21;;;;;;;0.00;0.00;;;;;;;22.73;82.34;97780.88;5077230;28;20045;-63
2022/07/30 07:47:54;;;;;;;0.00;0.00;;;;;;;22.71;82.28;97779.34;5076475;28;20131;-63
2022/07/30 07:50:43;;;;;;;0.00;0.00;;;;;;;22.44;82.54;97769.19;5069054;28;20051;-62
2022/07/30 07:53:18;;;;;;;0.00;0.00;;;;;;;22.29;83.92;97768.25;5084042;28;20347;-62
2022/07/30 07:55:46;;;;;;;0.00;0.00;;;;;;;22.38;84.45;97767.22;5087361;28;20102;-63
2022/07/30 07:58:14;;;;;;;0.00;0.00;;;;;;;22.48;84.23;97765.97;5096116;28;20117;-63
2022/07/30 08:00:43;;;;;;;0.00;0.00;;;;;;;22.56;84.00;97765.06;5095289;28;20046;-62
2022/07/30 08:03:11;;;;;;;0.00;0.00;;;;;;;22.47;84.22;97771.50;5094592;28;20059;-62
2022/07/30 08:05:38;;;;;;;0.00;0.00;;;;;;;22.35;84.31;97767.59;5094370;28;20043;-62
2022/07/30 08:08:26;;;;;;;0.00;0.00;;;;;;;22.25;84.70;97767.78;5076289;28;20340;-63
2022/07/30 08:11:12;;;;;;;0.00;0.00;;;;;;;22.00;85.03;97776.13;5075900;28;20037;-62
2022/07/30 08:14:02;;;;;;;0.00;0.00;;;;;;;21.82;86.06;97770.19;5032187;28;20057;-63
2022/07/30 08:16:51;;;;;;;0.00;0.00;;;;;;;21.78;86.65;97764.38;5029423;28;20050;-63
2022/07/30 08:19:42;;;;;;;0.00;0.00;;;;;;;21.70;87.04;97768.94;5014146;28;20057;-63
2022/07/30 08:22:20;;;;;;;0.00;0.00;;;;;;;21.64;87.00;97762.41;4998342;28;20049;-62
2022/07/30 08:24:47;;;;;;;0.00;0.00;;;;;;;21.64;87.39;97764.25;5014384;28;20049;-62
2022/07/30 08:27:15;;;;;;;0.00;0.00;;;;;;;21.72;86.92;97765.06;4998746;28;20378;-62
2022/07/30 08:29:43;;;;;;;0.00;0.00;;;;;;;21.71;87.31;97765.22;4998782;28;20054;-62
2022/07/30 08:32:12;;;;;;;0.00;0.00;;;;;;;21.87;87.39;97763.31;5014809;28;20116;-62
2022/07/30 08:34:42;;;;;;;0.00;0.00;;;;;;;21.99;86.79;97763.75;5006390;28;20130;-63
2022/07/30 08:37:10;;;;;;;0.00;0.00;;;;;;;22.15;85.91;97769.84;5016402;28;20080;-63
2022/07/30 08:39:38;;;;;;;0.00;0.00;;;;;;;22.12;84.96;97772.88;5033862;28;20045;-62
2022/07/30 08:42:06;;;;;;;0.00;0.00;;;;;;;22.18;84.97;97766.84;5018508;28;20136;-63
2022/07/30 08:44:35;;;;;;;0.00;0.00;;;;;;;22.17;84.76;97769.69;5034844;28;20059;-63
2022/07/30 08:47:07;;;;;;;0.00;0.00;;;;;;;22.30;84.65;97762.72;5018218;28;20136;-62
2022/07/30 08:50:00;;;;;;;0.00;0.00;;;;;;;22.22;84.53;97764.63;5034874;28;20050;-63
2022/07/30 08:52:31;;;;;;;0.00;0.00;;;;;;;22.34;84.71;97764.06;5034866;28;20048;-62
2022/07/30 08:55:01;;;;;;;0.00;0.00;;;;;;;22.49;84.02;97756.06;5041514;28;20041;-62
2022/07/30 08:57:30;;;;;;;0.00;0.00;;;;;;;22.43;83.84;97759.50;5037779;28;20357;-63
2022/07/30 08:59:58;;;;;;;0.00;0.00;;;;;;;22.44;83.55;97761.16;5032547;28;20499;-62
2022/07/30 09:02:30;;;;;;;0.00;0.00;;;;;;;22.66;83.79;97762.97;5033586;28;20049;-62
2022/07/30 09:05:07;;;;;;;0.00;0.00;;;;;;;22.85;82.66;97751.75;5036357;28;20060;-62
2022/07/30 09:07:35;;;;;;;0.00;0.00;;;;;;;22.92;81.94;97747.31;5038564;28;20049;-62
2022/07/30 09:10:05;;;;;;;0.00;0.00;;;;;;;23.05;81.43;97744.91;5040992;28;20033;-63
2022/07/30 09:12:39;;;;;;;0.00;0.00;;;;;;;22.92;81.39;97742.81;5039692;28;20045;-63
2022/07/30 09:15:14;;;;;;;0.00;0.00;;;;;;;22.92;80.92;97744.63;5039342;28;20053;-62
2022/07/30 09:17:54;;;;;;;0.00;0.00;;;;;;;23.09;81.50;97741.63;5048641;28;20067;-63
2022/07/30 09:20:26;;;;;;;0.00;0.00;;;;;;;23.27;80.92;97735.94;5079195;28;20041;-63
2022/07/30 09:22:56;;;;;;;0.00;0.00;;;;;;;23.38;80.67;97736.28;5079247;28;20044;-63
2022/07/30 09:25:44;;;;;;;0.00;0.00;;;;;;;23.32;81.01;97730.84;5080315;28;20321;-63
2022/07/30 09:28:44;;;;;;;0.00;0.00;;;;;;;23.11;81.16;97733.41;5018736;28;20065;-62
2022/07/30 09:31:15;;;;;;;0.00;0.00;;;;;;;23.05;80.86;97726.91;5018628;28;20061;-63
2022/07/30 09:34:01;;;;;;;0.00;0.00;;;;;;;23.11;80.37;97728.88;5018391;28;20392;-62
2022/07/30 09:37:03;;;;;;;0.00;0.00;;;;;;;23.32;79.88;97725.47;4959914;29;20080;-63
2022/07/30 09:40:11;;;;;;;0.00;0.00;;;;;;;23.48;79.47;97726.09;4959679;29;20051;-63
2022/07/30 09:43:05;;;;;;;0.00;0.00;;;;;;;23.52;79.65;97726.53;4959707;29;20062;-62
2022/07/30 09:45:33;;;;;;;0.00;0.00;;;;;;;23.40;79.71;97728.88;4943564;29;20057;-63
2022/07/30 09:48:01;;;;;;;0.00;0.00;;;;;;;23.45;79.53;97722.94;4959436;29;20063;-62
2022/07/30 09:50:29;;;;;;;0.00;0.00;;;;;;;23.37;79.14;97717.66;4958545;29;20043;-63
2022/07/30 09:53:07;;;;;;;0.00;0.00;;;;;;;23.41;79.68;97718.97;4958606;29;20086;-63
2022/07/30 09:55:36;;;;;;;0.00;0.00;;;;;;;23.36;80.75;97716.00;4953778;28;20461;-62
2022/07/30 09:58:06;;;;;;;0.00;0.00;;;;;;;23.37;80.51;97715.00;4978032;28;20058;-62
2022/07/30 10:00:36;;;;;;;0.00;0.00;;;;;;;23.14;80.29;97719.63;4962433;28;20054;-62
2022/07/30 10:03:17;;;;;;;0.00;0.00;;;;;;;22.99;81.03;97722.31;4963245;28;20067;-62
2022/07/30 10:06:32;;;;;;;0.00;0.00;;;;;;;23.16;81.19;97717.59;4997603;28;20353;-62
2022/07/30 10:09:03;;;;;;;0.00;0.00;;;;;;;23.12;80.89;97714.44;5001244;28;20476;-61
2022/07/30 10:11:30;;;;;;;0.00;0.00;;;;;;;23.16;81.24;97714.91;5001476;28;20125;-62
2022/07/30 10:14:01;;;;;;;0.00;0.00;;;;;;;23.06;81.64;97703.59;5054899;28;20056;-63
2022/07/30 10:16:29;;;;;;;0.00;0.00;;;;;;;23.10;81.46;97707.59;5077070;28;20075;-62
2022/07/30 10:18:59;;;;;;;0.00;0.00;;;;;;;23.16;81.21;97698.81;5078009;28;20409;-62
2022/07/30 10:21:55;;;;;;;0.00;0.00;;;;;;;23.22;81.05;97695.38;5017348;28;20053;-62
2022/07/30 10:25:03;;;;;;;0.00;0.00;;;;;;;23.27;79.95;97707.22;5016834;28;20477;-63
2022/07/30 10:27:50;;;;;;;0.00;0.00;;;;;;;23.36;79.20;97706.13;5017395;28;20161;-63
2022/07/30 10:30:27;;;;;;;0.00;0.00;;;;;;;23.35;78.28;97700.94;5017242;28;20070;-62
2022/07/30 10:32:55;;;;;;;0.00;0.00;;;;;;;23.34;78.29;97696.59;5017116;28;20053;-61
2022/07/30 10:35:23;;;;;;;0.00;0.00;;;;;;;23.64;78.52;97690.16;5016906;28;20346;-63
2022/07/30 10:37:51;;;;;;;0.00;0.00;;;;;;;24.05;76.94;97687.75;5017304;28;20052;-61
2022/07/30 10:40:27;;;;;;;0.00;0.00;;;;;;;24.19;76.34;97692.25;5016619;28;20070;-63
2022/07/30 10:43:17;;;;;;;0.00;0.00;;;;;;;24.39;75.20;97691.44;5017164;28;20108;-63
2022/07/30 10:45:50;;;;;;;0.00;0.00;;;;;;;24.50;74.22;97690.91;5016926;28;20057;-62
2022/07/30 10:48:19;;;;;;;0.00;0.00;;;;;;;24.62;73.44;97691.22;5016856;28;20060;-63
2022/07/30 10:50:52;;;;;;;0.00;0.00;;;;;;;24.74;72.61;97690.50;5016601;28;20069;-63
2022/07/30 10:53:34;;;;;;;0.00;0.00;;;;;;;24.85;72.58;97684.56;5016646;28;20410;-64
2022/07/30 10:56:14;;;;;;;0.00;0.00;;;;;;;24.95;71.71;97685.09;5016664;28;20565;-62
2022/07/30 10:59:04;;;;;;;0.00;0.00;;;;;;;25.27;72.40;97684.47;5044487;28;20440;-63
2022/07/30 11:02:10;;;;;;;0.00;0.00;;;;;;;25.48;71.58;97678.97;5077908;28;20080;-63
2022/07/30 11:04:38;;;;;;;0.00;0.00;;;;;;;25.57;71.45;97677.81;5077323;28;20041;-63
2022/07/30 11:07:28;;;;;;;0.00;0.00;;;;;;;25.74;70.61;97680.97;5077874;28;20056;-62
2022/07/30 11:09:59;;;;;;;0.00;0.00;;;;;;;25.68;69.88;97674.53;5072406;28;20048;-63
2022/07/30 11:12:56;;;;;;;0.00;0.00;;;;;;;25.83;69.13;97669.81;5078101;28;20106;-63
2022/07/30 11:15:24;;;;;;;0.00;0.00;;;;;;;25.78;69.54;97666.91;5077832;28;20048;-63
2022/07/30 11:18:06;;;;;;;0.00;0.00;;;;;;;25.89;70.18;97673.56;5077179;28;20054;-62
2022/07/30 11:20:34;;;;;;;;;;;;;;;25.95;69.67;97662.78;5077519;28;20055;-63
2022/07/30 11:23:38;;;;;;;0.00;0.00;;;;;;;25.63;69.89;97673.47;5077729;28;19920;-63
2022/07/30 11:26:06;;;;;;;0.00;0.00;;;;;;;25.42;69.27;97671.69;5077722;28;20076;-62
2022/07/30 11:28:40;;;;;;;0.00;0.00;;;;;;;25.17;70.13;97667.81;5091631;28;20040;-63
2022/07/30 11:31:32;;;;;;;0.00;0.00;;;;;;;25.35;68.76;97670.81;5096399;28;20339;-63
2022/07/30 11:34:28;;;;;;;0.00;0.00;;;;;;;25.30;68.61;97661.69;5077340;28;20053;-63
2022/07/30 11:37:11;;;;;;;0.00;0.00;;;;;;;25.24;69.93;97659.78;5076166;28;20053;-62
2022/07/30 11:40:09;;;;;;;0.00;0.00;;;;;;;25.26;69.57;97658.56;5077630;28;20335;-63
2022/07/30 11:42:38;;;;;;;0.00;0.00;;;;;;;25.20;69.89;97662.03;5076490;28;20053;-63
2022/07/30 11:45:28;;;;;;;0.00;0.00;;;;;;;25.07;70.49;97661.97;5075861;28;20059;-62
2022/07/30 11:47:59;;;;;;;0.00;0.00;;;;;;;24.92;71.08;97658.56;5075386;28;20044;-62
2022/07/30 11:50:29;;;;;;;0.00;0.00;;;;;;;24.91;71.57;97659.59;5074377;28;20059;-61
2022/07/30 11:52:58;;;;;;;0.00;0.00;;;;;;;24.85;71.63;97656.84;5074961;28;20106;-63
2022/07/30 11:55:27;;;;;;;0.00;0.00;;;;;;;24.68;71.61;97661.69;5074957;28;20048;-62
2022/07/30 11:57:55;;;;;;;0.00;0.00;;;;;;;24.61;71.62;97663.47;5076023;28;20124;-63